createdAt,value
2023-03-04T00:00:07.762Z,59.10
2023-03-04T00:03:05.428Z,59.19
2023-03-04T00:06:02.879Z,59.28
2023-03-04T00:09:00.549Z,59.39
2023-03-04T00:11:58.031Z,59.51
2023-03-04T00:14:55.921Z,59.62
2023-03-04T00:17:53.697Z,59.79
2023-03-04T00:20:51.146Z,59.95
2023-03-04T00:23:48.921Z,60.09
2023-03-04T00:26:46.613Z,60.22
2023-03-04T00:29:44.336Z,60.29
2023-03-04T00:32:41.872Z,60.43
2023-03-04T00:35:39.586Z,60.56
2023-03-04T00:38:37.060Z,60.73
2023-03-04T00:41:34.810Z,60.95
2023-03-04T00:44:32.456Z,61.08
2023-03-04T00:47:29.924Z,61.22
2023-03-04T00:50:27.573Z,61.34
2023-03-04T00:53:25.108Z,61.47
2023-03-04T00:56:22.766Z,61.59
2023-03-04T00:59:20.223Z,61.73
2023-03-04T01:02:18.021Z,61.92
2023-03-04T01:05:15.478Z,62.10
2023-03-04T01:08:13.164Z,62.24
2023-03-04T01:11:10.832Z,62.37
2023-03-04T01:14:08.282Z,62.51
2023-03-04T01:17:05.965Z,62.64
2023-03-04T01:20:03.420Z,62.78
2023-03-04T01:23:01.085Z,62.95
2023-03-04T01:25:58.524Z,63.07
2023-03-04T01:28:56.168Z,63.18
2023-03-04T01:31:53.860Z,63.25
2023-03-04T01:34:51.320Z,63.30
2023-03-04T01:37:49.097Z,63.37
2023-03-04T01:40:46.589Z,63.45
2023-03-04T01:43:45.448Z,63.58
2023-03-04T01:46:42.906Z,63.68
2023-03-04T01:49:42.637Z,63.74
2023-03-04T01:52:40.292Z,63.80
2023-03-04T01:55:37.742Z,63.80
2023-03-04T01:58:35.427Z,63.80
2023-03-04T02:01:32.881Z,63.90
2023-03-04T02:04:30.574Z,63.90
2023-03-04T02:07:28.057Z,63.90
2023-03-04T02:10:25.734Z,63.95
2023-03-04T02:13:23.532Z,64.00
2023-03-04T02:16:21.008Z,64.02
2023-03-04T02:19:18.716Z,64.06
2023-03-04T02:22:16.176Z,64.10
2023-03-04T02:25:13.990Z,64.18
2023-03-04T02:28:11.470Z,64.23
2023-03-04T02:31:09.255Z,64.29
2023-03-04T02:34:06.889Z,64.35
2023-03-04T02:37:04.333Z,64.44
2023-03-04T02:40:02.015Z,64.55
2023-03-04T02:42:59.486Z,64.65
2023-03-04T02:45:57.128Z,64.74
2023-03-04T02:48:54.584Z,64.84
2023-03-04T02:51:52.688Z,64.95
2023-03-04T02:54:50.643Z,65.03
2023-03-04T02:57:48.298Z,65.10
2023-03-04T03:00:46.067Z,65.20
2023-03-04T03:03:43.534Z,65.44
2023-03-04T03:06:41.502Z,65.46
2023-03-04T03:09:39.581Z,65.50
2023-03-04T03:12:37.174Z,65.50
2023-03-04T03:15:34.598Z,65.53
2023-03-04T03:18:32.597Z,65.58
2023-03-04T03:21:30.450Z,65.60
2023-03-04T03:24:28.215Z,65.63
2023-03-04T03:27:25.886Z,65.71
2023-03-04T03:30:23.349Z,65.82
2023-03-04T03:33:21.004Z,65.93
2023-03-04T03:36:18.477Z,66.07
2023-03-04T03:39:16.745Z,66.37
2023-03-04T03:42:14.600Z,66.70
2023-03-04T03:45:12.801Z,67.71
2023-03-04T03:48:10.562Z,68.94
2023-03-04T03:51:08.031Z,69.48
2023-03-04T03:54:05.645Z,70.17
2023-03-04T03:57:03.111Z,70.93
2023-03-04T04:00:00.891Z,71.28
2023-03-04T04:02:58.387Z,71.46
2023-03-04T04:05:56.233Z,71.67
2023-03-04T04:08:53.996Z,71.73
2023-03-04T04:11:51.625Z,71.74
2023-03-04T04:14:49.321Z,71.85
2023-03-04T04:17:46.786Z,71.76
2023-03-04T04:20:44.550Z,71.92
2023-03-04T04:23:41.997Z,71.77
2023-03-04T04:26:39.789Z,71.53
2023-03-04T04:29:37.663Z,71.30
2023-03-04T04:32:35.448Z,71.22
2023-03-04T04:35:32.896Z,71.03
2023-03-04T04:38:30.640Z,70.79
2023-03-04T04:41:28.086Z,70.62
2023-03-04T04:44:25.874Z,70.39
2023-03-04T04:47:23.624Z,70.22
2023-03-04T04:50:21.077Z,70.14
2023-03-04T04:53:18.721Z,70.03
2023-03-04T04:56:16.170Z,69.92
2023-03-04T04:59:13.882Z,69.90
2023-03-04T05:02:11.658Z,69.80
2023-03-04T05:05:09.173Z,69.78
2023-03-04T05:08:06.996Z,69.57
2023-03-04T05:11:04.430Z,69.42
2023-03-04T05:14:02.024Z,69.39
2023-03-04T05:16:59.549Z,69.42
2023-03-04T05:19:57.442Z,69.31
2023-03-04T05:22:54.910Z,69.17
2023-03-04T05:25:52.667Z,69.10
2023-03-04T05:28:50.441Z,68.94
2023-03-04T05:31:47.900Z,68.84
2023-03-04T05:34:45.552Z,68.74
2023-03-04T05:37:42.965Z,68.58
2023-03-04T05:40:40.703Z,68.52
2023-03-04T05:43:42.868Z,68.45
2023-03-04T05:46:40.744Z,68.36
2023-03-04T05:49:38.180Z,68.27
2023-03-04T05:52:35.960Z,68.15
2023-03-04T05:55:33.397Z,68.05
2023-03-04T05:58:31.687Z,68.00
2023-03-04T06:01:29.510Z,67.90
2023-03-04T06:04:26.964Z,67.78
2023-03-04T06:07:24.582Z,67.69
2023-03-04T06:10:22.039Z,67.67
2023-03-04T06:13:19.675Z,67.58
2023-03-04T06:16:17.191Z,67.52
2023-03-04T06:19:14.934Z,67.39
2023-03-04T06:22:12.391Z,67.28
2023-03-04T06:25:10.205Z,67.20
2023-03-04T06:28:07.657Z,67.13
2023-03-04T06:31:06.053Z,67.14
2023-03-04T06:34:04.285Z,67.03
2023-03-04T06:37:01.851Z,66.97
2023-03-04T06:40:00.340Z,66.73
2023-03-04T06:42:57.784Z,66.60
2023-03-04T06:45:55.547Z,66.34
2023-03-04T06:48:53.279Z,66.11
2023-03-04T06:51:50.782Z,65.88
2023-03-04T06:54:48.557Z,65.65
2023-03-04T06:57:49.285Z,65.41
2023-03-04T07:00:46.976Z,65.14
2023-03-04T07:03:44.643Z,64.87
2023-03-04T07:06:42.693Z,64.58
2023-03-04T07:09:40.475Z,64.28
2023-03-04T07:12:38.322Z,64.09
2023-03-04T07:15:36.704Z,63.81
2023-03-04T07:18:34.184Z,63.52
2023-03-04T07:21:31.798Z,63.28
2023-03-04T07:24:29.232Z,63.00
2023-03-04T07:27:27.181Z,62.78
2023-03-04T07:30:24.728Z,62.55
2023-03-04T07:33:22.497Z,62.37
2023-03-04T07:36:20.886Z,62.22
2023-03-04T07:39:18.638Z,62.10
2023-03-04T07:42:16.407Z,61.96
2023-03-04T07:45:13.865Z,61.77
2023-03-04T07:48:11.841Z,61.55
2023-03-04T07:51:09.403Z,61.41
2023-03-04T07:54:09.114Z,61.24
2023-03-04T07:57:06.578Z,61.13
2023-03-04T08:00:04.339Z,60.96
2023-03-04T08:03:02.106Z,60.78
2023-03-04T08:05:59.674Z,60.59
2023-03-04T08:08:57.442Z,60.38
2023-03-04T08:11:54.896Z,60.18
2023-03-04T08:14:52.557Z,59.87
2023-03-04T08:17:49.995Z,59.61
2023-03-04T08:20:47.994Z,59.38
2023-03-04T08:23:45.485Z,59.13
2023-03-04T08:26:43.354Z,58.86
2023-03-04T08:29:41.298Z,58.85
2023-03-04T08:32:38.998Z,58.40
2023-03-04T08:35:36.936Z,57.74
2023-03-04T08:38:34.492Z,57.21
2023-03-04T08:41:32.252Z,56.81
2023-03-04T08:44:29.924Z,55.89
2023-03-04T08:47:27.557Z,54.58
2023-03-04T08:50:25.359Z,53.19
2023-03-04T08:53:22.815Z,51.64
2023-03-04T08:56:20.892Z,48.92
2023-03-04T08:59:18.352Z,44.58
2023-03-04T09:02:16.126Z,41.96
2023-03-04T09:05:13.623Z,39.94
2023-03-04T09:08:11.860Z,36.51
2023-03-04T09:11:09.631Z,34.86
2023-03-04T09:14:07.097Z,33.34
2023-03-04T09:17:04.885Z,32.24
2023-03-04T09:20:04.445Z,30.93
2023-03-04T09:23:02.536Z,29.92
2023-03-04T09:26:00.252Z,29.53
2023-03-04T09:28:58.800Z,28.65
2023-03-04T09:31:56.408Z,27.44
2023-03-04T09:34:54.345Z,26.25
2023-03-04T09:37:53.209Z,25.95
2023-03-04T09:40:50.660Z,26.02
2023-03-04T09:43:48.286Z,25.42
2023-03-04T09:46:45.845Z,25.23
2023-03-04T09:49:43.671Z,24.73
2023-03-04T09:52:41.136Z,24.23
2023-03-04T09:55:38.903Z,24.06
2023-03-04T09:58:36.671Z,23.63
2023-03-04T10:01:34.250Z,23.44
2023-03-04T10:04:32.925Z,23.33
2023-03-04T10:07:30.481Z,22.69
2023-03-04T10:10:28.279Z,22.17
2023-03-04T10:13:25.737Z,21.25
2023-03-04T10:16:23.809Z,21.23
2023-03-04T10:19:21.658Z,20.94
2023-03-04T10:22:19.091Z,20.49
2023-03-04T10:25:16.882Z,20.61
2023-03-04T10:28:14.433Z,20.77
2023-03-04T10:31:12.347Z,20.54
2023-03-04T10:34:09.861Z,20.23
2023-03-04T10:37:07.828Z,20.67
2023-03-04T10:40:05.291Z,20.49
2023-03-04T10:43:07.451Z,20.17
2023-03-04T10:46:04.910Z,19.78
2023-03-04T10:49:02.892Z,19.68
2023-03-04T10:52:00.724Z,19.69
2023-03-04T10:54:58.182Z,19.57
2023-03-04T10:57:57.821Z,19.79
2023-03-04T11:00:55.523Z,19.69
2023-03-04T11:03:53.651Z,19.58
2023-03-04T11:06:51.224Z,19.28
2023-03-04T11:09:48.721Z,19.54
2023-03-04T11:12:46.451Z,19.22
2023-03-04T11:15:43.890Z,19.15
2023-03-04T11:18:41.593Z,19.14
2023-03-04T11:21:40.266Z,18.95
2023-03-04T11:24:38.256Z,18.81
2023-03-04T11:27:36.114Z,18.48
2023-03-04T11:30:34.695Z,18.39
2023-03-04T11:33:32.213Z,18.17
2023-03-04T11:36:30.342Z,18.34
2023-03-04T11:39:28.209Z,18.20
2023-03-04T11:42:25.779Z,17.92
2023-03-04T11:45:29.192Z,17.62
2023-03-04T11:48:28.283Z,17.63
2023-03-04T11:51:25.856Z,17.93
2023-03-04T11:54:23.617Z,17.75
2023-03-04T11:57:21.077Z,17.81
2023-03-04T12:00:20.892Z,17.96
2023-03-04T12:03:18.556Z,17.84
2023-03-04T12:06:16.263Z,17.93
2023-03-04T12:09:13.949Z,18.02
2023-03-04T12:12:11.382Z,17.89
2023-03-04T12:15:09.629Z,17.66
2023-03-04T12:18:07.191Z,17.80
2023-03-04T12:21:04.963Z,17.59
2023-03-04T12:24:02.440Z,17.65
2023-03-04T12:27:00.286Z,17.63
2023-03-04T12:29:57.945Z,17.67
2023-03-04T12:32:55.815Z,17.97
2023-03-04T12:35:53.546Z,18.04
2023-03-04T12:38:51.162Z,18.11
2023-03-04T12:41:48.776Z,17.93
2023-03-04T12:44:46.239Z,17.98
2023-03-04T12:47:44.034Z,18.06
2023-03-04T12:50:41.695Z,18.45
2023-03-04T12:53:39.268Z,19.43
2023-03-04T12:56:37.235Z,20.50
2023-03-04T12:59:34.796Z,21.45
2023-03-04T13:02:32.764Z,22.42
2023-03-04T13:05:30.439Z,23.22
2023-03-04T13:08:28.202Z,23.77
2023-03-04T13:11:26.383Z,24.19
2023-03-04T13:14:23.941Z,24.70
2023-03-04T13:17:21.709Z,25.35
2023-03-04T13:20:19.376Z,25.77
2023-03-04T13:23:17.136Z,26.18
2023-03-04T13:26:14.603Z,26.76
2023-03-04T13:29:12.359Z,27.14
2023-03-04T13:32:09.861Z,27.55
2023-03-04T13:35:07.696Z,28.01
2023-03-04T13:38:05.571Z,28.33
2023-03-04T13:41:03.127Z,28.69
2023-03-04T13:44:00.999Z,29.26
2023-03-04T13:46:58.579Z,29.31
2023-03-04T13:49:56.533Z,29.38
2023-03-04T13:52:54.108Z,29.55
2023-03-04T13:55:51.962Z,29.68
2023-03-04T13:58:49.524Z,29.93
2023-03-04T14:01:47.908Z,30.03
2023-03-04T14:04:45.671Z,30.36
2023-03-04T14:07:43.443Z,30.62
2023-03-04T14:10:44.174Z,30.80
2023-03-04T14:13:41.637Z,31.12
2023-03-04T14:16:39.788Z,31.29
2023-03-04T14:19:40.550Z,31.38
2023-03-04T14:22:38.230Z,31.42
2023-03-04T14:25:36.881Z,31.53
2023-03-04T14:28:34.596Z,31.74
2023-03-04T14:31:32.543Z,31.91
2023-03-04T14:34:32.152Z,32.13
2023-03-04T14:37:29.928Z,32.30
2023-03-04T14:40:27.797Z,32.43
2023-03-04T14:43:25.558Z,32.51
2023-03-04T14:46:23.430Z,32.63
2023-03-04T14:49:20.921Z,32.82
2023-03-04T14:52:18.757Z,33.00
2023-03-04T14:55:17.373Z,33.24
2023-03-04T14:58:15.214Z,33.40
2023-03-04T15:01:13.138Z,33.53
2023-03-04T15:04:11.784Z,33.44
2023-03-04T15:07:09.335Z,33.51
2023-03-04T15:10:07.770Z,33.47
2023-03-04T15:13:05.778Z,33.35
2023-03-04T15:16:03.301Z,33.44
2023-03-04T15:19:02.432Z,33.42
2023-03-04T15:22:00.425Z,33.47
2023-03-04T15:24:58.300Z,33.67
2023-03-04T15:27:56.884Z,33.99
2023-03-04T15:30:56.105Z,34.26
2023-03-04T15:33:54.730Z,34.60
2023-03-04T15:36:52.661Z,34.80
2023-03-04T15:39:50.817Z,35.08
2023-03-04T15:42:49.339Z,35.21
2023-03-04T15:45:47.488Z,35.22
2023-03-04T15:48:48.026Z,35.28
2023-03-04T15:51:46.490Z,35.42
2023-03-04T15:54:44.583Z,35.55
2023-03-04T15:57:42.042Z,35.64
2023-03-04T16:00:40.494Z,35.80
2023-03-04T16:03:38.345Z,35.97
2023-03-04T16:06:37.839Z,36.17
2023-03-04T16:09:36.047Z,36.39
2023-03-04T16:12:34.952Z,36.60
2023-03-04T16:15:33.568Z,36.82
2023-03-04T16:18:31.296Z,37.15
2023-03-04T16:21:29.074Z,37.42
2023-03-04T16:24:26.991Z,37.60
2023-03-04T16:27:27.035Z,37.85
2023-03-04T16:30:26.087Z,38.13
2023-03-04T16:33:25.236Z,38.31
2023-03-04T16:36:24.015Z,38.53
2023-03-04T16:39:22.129Z,38.74
2023-03-04T16:42:20.221Z,39.03
2023-03-04T16:45:19.097Z,39.28
2023-03-04T16:48:17.378Z,39.56
2023-03-04T16:51:15.378Z,39.83
2023-03-04T16:54:14.263Z,40.01
2023-03-04T16:57:13.333Z,40.30
2023-03-04T17:00:11.010Z,40.60
2023-03-04T17:03:08.724Z,40.88
2023-03-04T17:06:06.953Z,41.13
2023-03-04T17:09:05.046Z,41.40
2023-03-04T17:12:02.804Z,41.64
2023-03-04T17:15:00.400Z,41.84
2023-03-04T17:17:58.856Z,42.04
2023-03-04T17:20:56.403Z,42.20
2023-03-04T17:23:55.614Z,42.42
2023-03-04T17:26:53.781Z,42.73
2023-03-04T17:29:54.124Z,42.94
2023-03-04T17:32:52.500Z,43.10
2023-03-04T17:35:51.798Z,43.33
2023-03-04T17:38:53.197Z,43.52
2023-03-04T17:41:51.843Z,43.68
2023-03-04T17:44:51.203Z,43.93
2023-03-04T17:47:49.292Z,44.19
2023-03-04T17:50:47.412Z,44.34
2023-03-04T17:53:46.208Z,44.55
2023-03-04T17:56:47.333Z,44.78
2023-03-04T17:59:47.701Z,45.03
2023-03-04T18:02:46.454Z,45.20
2023-03-04T18:05:45.706Z,45.43
2023-03-04T18:08:43.821Z,45.72
2023-03-04T18:11:42.371Z,45.91
2023-03-04T18:14:41.547Z,46.11
2023-03-04T18:17:40.311Z,46.33
2023-03-04T18:20:39.293Z,46.55
2023-03-04T18:23:40.735Z,46.78
2023-03-04T18:26:39.524Z,46.99
2023-03-04T18:29:38.650Z,47.21
2023-03-04T18:32:51.013Z,47.42
2023-03-04T18:35:51.197Z,47.64
2023-03-04T18:38:49.476Z,47.92
2023-03-04T18:41:48.137Z,48.24
2023-03-04T18:44:47.301Z,48.48
2023-03-04T18:47:47.132Z,48.72
2023-03-04T18:50:45.947Z,48.92
2023-03-04T18:53:44.804Z,49.18
2023-03-04T18:56:44.245Z,49.38
2023-03-04T18:59:43.070Z,49.52
2023-03-04T19:02:42.409Z,49.74
2023-03-04T19:05:42.774Z,49.84
2023-03-04T19:08:41.641Z,50.07
2023-03-04T19:11:40.556Z,50.21
2023-03-04T19:14:45.729Z,50.33
2023-03-04T19:17:46.965Z,50.47
2023-03-04T19:20:46.067Z,50.57
2023-03-04T19:23:45.038Z,50.69
2023-03-04T19:26:44.408Z,50.81
2023-03-04T19:29:46.230Z,51.12
2023-03-04T19:32:45.000Z,50.97
2023-03-04T19:35:44.426Z,51.00
2023-03-04T19:38:44.596Z,51.08
2023-03-04T19:41:46.455Z,51.08
2023-03-04T19:44:47.128Z,51.30
2023-03-04T19:47:46.336Z,51.22
2023-03-04T19:50:45.119Z,51.30
2023-03-04T19:53:44.225Z,51.29
2023-03-04T19:56:43.521Z,51.38
2023-03-04T19:59:41.124Z,51.34
2023-03-04T20:02:39.466Z,51.37
2023-03-04T20:05:38.696Z,51.43
2023-03-04T20:08:38.469Z,51.53
2023-03-04T20:11:47.390Z,51.50
2023-03-04T20:14:56.232Z,51.47
2023-03-04T20:17:55.228Z,51.55
2023-03-04T20:20:53.717Z,51.53
2023-03-04T20:23:51.834Z,51.57
2023-03-04T20:26:50.695Z,51.54
2023-03-04T20:29:49.849Z,51.58
2023-03-04T20:32:49.694Z,51.58
2023-03-04T20:35:48.531Z,51.58
2023-03-04T20:38:48.381Z,51.62
2023-03-04T20:41:47.615Z,51.67
2023-03-04T20:44:47.217Z,51.78
2023-03-04T20:47:46.020Z,51.83
2023-03-04T20:50:47.771Z,51.92
2023-03-04T20:53:46.509Z,52.06
2023-03-04T20:56:46.223Z,52.21
2023-03-04T20:59:45.025Z,52.32
2023-03-04T21:02:43.655Z,52.40
2023-03-04T21:05:41.571Z,52.44
2023-03-04T21:08:41.236Z,52.49
2023-03-04T21:11:40.900Z,52.63
2023-03-04T21:14:39.489Z,52.74
2023-03-04T21:17:38.799Z,52.82
2023-03-04T21:20:37.112Z,52.92
2023-03-04T21:23:38.428Z,52.94
2023-03-04T21:26:37.189Z,53.03
2023-03-04T21:29:35.334Z,53.08
2023-03-04T21:32:34.997Z,53.19
2023-03-04T21:35:34.175Z,53.20
2023-03-04T21:38:31.681Z,53.30
2023-03-04T21:41:31.557Z,53.26
2023-03-04T21:44:38.785Z,53.29
2023-03-04T21:47:45.921Z,53.27
2023-03-04T21:50:44.364Z,53.29
2023-03-04T21:53:43.913Z,53.30
2023-03-04T21:56:42.344Z,53.35
2023-03-04T21:59:40.048Z,53.41
2023-03-04T22:02:38.661Z,53.45
2023-03-04T22:05:36.187Z,53.51
2023-03-04T22:08:34.501Z,53.52
2023-03-04T22:11:32.175Z,53.61
2023-03-04T22:14:29.864Z,53.65
2023-03-04T22:17:27.655Z,53.80
2023-03-04T22:20:25.799Z,53.88
2023-03-04T22:23:23.413Z,53.94
2023-03-04T22:26:20.899Z,54.00
2023-03-04T22:29:18.704Z,54.05
2023-03-04T22:32:17.439Z,54.08
2023-03-04T22:35:14.906Z,54.16
2023-03-04T22:38:12.542Z,54.30
2023-03-04T22:41:10.027Z,54.36
2023-03-04T22:44:07.943Z,54.43
2023-03-04T22:47:05.898Z,54.45
2023-03-04T22:50:03.401Z,54.47
2023-03-04T22:53:01.682Z,54.53
2023-03-04T22:55:59.118Z,54.60
2023-03-04T22:58:56.787Z,54.58
2023-03-04T23:01:54.238Z,54.64
2023-03-04T23:04:52.076Z,54.61
2023-03-04T23:07:49.508Z,54.61
2023-03-04T23:10:48.141Z,54.63
2023-03-04T23:13:45.671Z,54.67
2023-03-04T23:16:44.665Z,54.68
2023-03-04T23:19:42.799Z,54.70
2023-03-04T23:22:40.265Z,54.80
2023-03-04T23:25:38.088Z,54.83
2023-03-04T23:28:35.650Z,54.89
2023-03-04T23:31:33.414Z,54.85
2023-03-04T23:34:32.630Z,54.94
2023-03-04T23:37:30.075Z,54.96
2023-03-04T23:40:28.052Z,54.92
2023-03-04T23:43:27.281Z,54.97
2023-03-04T23:46:25.159Z,54.97
2023-03-04T23:49:22.705Z,55.03
2023-03-04T23:52:20.560Z,55.01
2023-03-04T23:55:18.270Z,55.03
2023-03-04T23:58:15.821Z,55.10
